createdAt,value
2016-11-05T00:15:38.838Z,20.07
2016-11-05T00:16:49.221Z,20.11
2016-11-05T01:15:28.479Z,20
2016-11-05T01:16:38.899Z,20.04
2016-11-05T02:15:25.492Z,19.99
2016-11-05T02:16:35.884Z,19.96
2016-11-05T02:17:46.278Z,19.94
2016-11-05T02:18:56.676Z,19.9
2016-11-05T02:20:07.073Z,19.97
2016-11-05T02:21:17.469Z,19.96
2016-11-05T02:22:27.869Z,19.96
2016-11-05T02:23:38.263Z,19.9
2016-11-05T02:24:48.662Z,19.92
2016-11-05T02:25:59.071Z,19.94
2016-11-05T02:27:09.408Z,19.9
2016-11-05T02:28:19.771Z,19.93
2016-11-05T02:29:30.125Z,19.89
2016-11-05T02:30:40.493Z,19.94
2016-11-05T02:31:50.849Z,19.92
2016-11-05T02:33:01.207Z,19.92
2016-11-05T02:34:11.564Z,19.9
2016-11-05T02:35:21.925Z,19.84
2016-11-05T02:36:32.276Z,19.87
2016-11-05T02:37:42.637Z,19.96
2016-11-05T02:38:53.000Z,19.85
2016-11-05T02:40:03.361Z,19.9
2016-11-05T02:41:13.715Z,19.96
2016-11-05T02:42:24.073Z,19.9
2016-11-05T02:43:34.439Z,19.9
2016-11-05T02:44:44.799Z,19.93
2016-11-05T02:45:55.173Z,19.92
2016-11-05T02:47:05.523Z,19.93
2016-11-05T02:48:15.888Z,19.94
2016-11-05T02:49:26.243Z,19.89
2016-11-05T02:50:36.599Z,19.92
2016-11-05T03:15:16.019Z,19.96
2016-11-05T03:16:26.379Z,19.9
2016-11-05T03:17:36.727Z,19.85
2016-11-05T03:18:47.071Z,19.82
2016-11-05T04:15:18.886Z,19.94
2016-11-05T04:16:29.277Z,20
2016-11-05T05:15:16.495Z,20.14
2016-11-05T05:16:26.895Z,20.08
2016-11-05T05:17:37.289Z,20.11
2016-11-05T05:18:47.683Z,20.11
2016-11-05T05:19:58.095Z,20.14
2016-11-05T05:21:08.494Z,20.08
2016-11-05T05:22:18.894Z,20.1
2016-11-05T05:23:29.294Z,20.1
2016-11-05T05:24:39.690Z,20.08
2016-11-05T05:25:50.088Z,20.04
2016-11-05T05:27:00.442Z,20.07
2016-11-05T05:28:10.793Z,20.14
2016-11-05T05:29:21.149Z,20.12
2016-11-05T06:14:58.755Z,20.18
2016-11-05T06:16:09.148Z,20.18
2016-11-05T06:17:19.542Z,20.15
2016-11-05T06:18:29.935Z,20.18
2016-11-05T06:19:40.334Z,20.1
2016-11-05T06:20:50.732Z,20.11
2016-11-05T06:22:01.131Z,20.17
2016-11-05T06:23:11.528Z,20.15
2016-11-05T06:24:21.934Z,20.18
2016-11-05T06:25:32.336Z,20.1
2016-11-05T06:26:42.689Z,20.11
2016-11-05T06:27:53.044Z,20.14
2016-11-05T06:29:03.400Z,20.1
2016-11-05T06:30:13.750Z,20.18
2016-11-05T06:31:24.111Z,20.11
2016-11-05T07:15:24.021Z,20.29
2016-11-05T07:16:34.423Z,20.18
2016-11-05T07:17:44.820Z,20.17
2016-11-05T07:18:55.211Z,20.17
2016-11-05T07:20:05.608Z,20.19
2016-11-05T07:21:16.006Z,20.17
2016-11-05T07:22:26.405Z,20.17
2016-11-05T07:23:36.816Z,20.19
2016-11-05T07:24:47.215Z,20.29
2016-11-05T07:25:57.618Z,20.21
2016-11-05T07:27:07.979Z,20.15
2016-11-05T07:28:18.324Z,20.22
2016-11-05T07:29:28.666Z,20.15
2016-11-05T07:30:39.030Z,20.17
2016-11-05T07:31:49.384Z,20.21
2016-11-05T07:32:59.747Z,20.15
2016-11-05T07:34:10.104Z,20.17
2016-11-05T07:35:20.468Z,20.19
2016-11-05T07:36:30.825Z,20.17
2016-11-05T07:37:41.186Z,20.22
2016-11-05T07:38:51.544Z,20.17
2016-11-05T07:40:01.901Z,20.19
2016-11-05T07:41:12.259Z,20.19
2016-11-05T07:42:22.609Z,20.19
2016-11-05T07:43:32.973Z,20.14
2016-11-05T07:44:43.331Z,20.22
2016-11-05T07:45:53.696Z,20.18
2016-11-05T07:47:04.055Z,20.15
2016-11-05T07:48:14.413Z,20.19
2016-11-05T07:49:24.776Z,20.21
2016-11-05T08:15:30.788Z,20.11
2016-11-05T08:16:41.181Z,20.1
2016-11-05T08:17:51.579Z,20.18
2016-11-05T08:19:01.973Z,20.14
2016-11-05T08:20:12.373Z,20.18
2016-11-05T08:21:22.767Z,20.17
2016-11-05T08:22:33.164Z,20.21
2016-11-05T09:15:29.407Z,18.88
2016-11-05T09:16:39.740Z,19.23
2016-11-05T09:17:50.087Z,19.55
2016-11-05T09:19:00.438Z,19.63
2016-11-05T09:20:10.781Z,19.89
2016-11-05T09:21:21.021Z,19.87
2016-11-05T10:15:23.644Z,20.27
2016-11-05T10:16:34.044Z,20.36
2016-11-05T10:17:44.449Z,20.32
2016-11-05T10:18:54.835Z,20.3
2016-11-05T10:20:05.230Z,20.24
2016-11-05T10:21:15.629Z,20.29
2016-11-05T10:22:26.027Z,20.33
2016-11-05T10:23:36.425Z,20.3
2016-11-05T10:24:46.823Z,20.37
2016-11-05T10:25:57.220Z,20.29
2016-11-05T10:27:07.571Z,20.33
2016-11-05T10:28:17.922Z,20.36
2016-11-05T10:29:28.278Z,20.29
2016-11-05T10:30:38.636Z,20.34
2016-11-05T10:31:48.987Z,20.34
2016-11-05T10:32:59.347Z,20.33
2016-11-05T10:34:09.708Z,20.3
2016-11-05T10:35:20.065Z,20.36
2016-11-05T10:36:30.426Z,20.29
2016-11-05T10:37:40.787Z,20.29
2016-11-05T11:15:25.575Z,20.29
2016-11-05T12:15:23.804Z,20.4
2016-11-05T12:16:34.193Z,20.42
2016-11-05T12:17:44.585Z,20.4
2016-11-05T13:15:45.687Z,20.48
2016-11-05T13:16:56.085Z,20.5
2016-11-05T13:18:06.479Z,20.49
2016-11-05T13:19:16.877Z,20.46
2016-11-05T13:20:27.273Z,20.3
2016-11-05T13:21:37.674Z,20.1
2016-11-05T13:22:48.072Z,20.18
2016-11-05T13:23:58.473Z,20.27
2016-11-05T13:25:08.874Z,19.99
2016-11-05T13:26:19.273Z,19.89
2016-11-05T13:27:29.641Z,20.1
2016-11-05T13:28:39.995Z,20.17
2016-11-05T13:29:50.342Z,20.18
2016-11-05T13:31:00.700Z,20.26
2016-11-05T13:32:11.055Z,20.32
2016-11-05T14:15:51.608Z,20.44
2016-11-05T14:17:02.008Z,20.44
2016-11-05T14:18:12.402Z,20.37
2016-11-05T14:19:22.789Z,20.37
2016-11-05T14:20:33.188Z,20.39
2016-11-05T14:21:43.587Z,20.39
2016-11-05T14:22:53.994Z,20.39
2016-11-05T14:24:04.394Z,20.37
2016-11-05T14:25:14.795Z,20.4
2016-11-05T14:26:25.140Z,20.42
2016-11-05T14:27:35.492Z,20.44
2016-11-05T14:28:45.848Z,20.39
2016-11-05T14:29:56.202Z,20.39
2016-11-05T14:31:06.556Z,20.48
2016-11-05T14:32:16.912Z,20.44
2016-11-05T14:33:27.272Z,20.39
2016-11-05T14:34:37.631Z,20.44
2016-11-05T14:35:47.989Z,20.42
2016-11-05T14:36:58.365Z,20.4
2016-11-05T14:38:08.707Z,20.37
2016-11-05T14:39:19.061Z,20.42
2016-11-05T14:40:29.422Z,20.48
2016-11-05T14:41:39.782Z,20.44
2016-11-05T14:42:50.140Z,20.46
2016-11-05T14:44:00.502Z,20.46
2016-11-05T14:45:10.867Z,20.5
2016-11-05T14:46:21.231Z,20.53
2016-11-05T14:47:31.597Z,20.44
2016-11-05T14:48:41.953Z,20.46
2016-11-05T14:49:52.316Z,20.5
2016-11-05T14:51:02.673Z,20.39
2016-11-05T15:15:59.361Z,19.15
2016-11-05T15:17:09.758Z,19.34
2016-11-05T15:18:20.151Z,19.45
2016-11-05T15:19:30.548Z,19.53
2016-11-05T15:20:40.946Z,19.08
2016-11-05T15:21:51.335Z,19.26
2016-11-05T15:23:01.730Z,19.35
2016-11-05T15:24:12.138Z,19.6
2016-11-05T15:25:22.524Z,19.56
2016-11-05T15:26:32.875Z,19.67
2016-11-05T15:27:43.227Z,19.7
2016-11-05T15:28:53.578Z,19.79
2016-11-05T15:30:03.937Z,19.77
2016-11-05T15:31:14.293Z,19.89
2016-11-05T15:32:24.651Z,19.84
2016-11-05T15:33:35.008Z,19.93
2016-11-05T15:34:45.369Z,19.93
2016-11-05T15:35:55.726Z,19.9
2016-11-05T15:37:06.088Z,19.97
2016-11-05T15:38:16.448Z,19.99
2016-11-05T15:39:26.805Z,20.03
2016-11-05T16:16:01.273Z,20.21
2016-11-05T16:17:11.673Z,20.22
2016-11-05T16:18:22.064Z,20.21
2016-11-05T16:19:32.464Z,20.19
2016-11-05T16:20:42.869Z,20.17
2016-11-05T16:21:53.265Z,20.19
2016-11-05T16:23:03.668Z,20.19
2016-11-05T16:24:14.061Z,20.12
2016-11-05T16:25:24.454Z,20.18
2016-11-05T16:26:34.864Z,20.15
2016-11-05T16:27:45.271Z,20.22
2016-11-05T17:15:56.875Z,20.46
2016-11-05T17:16:47.366Z,20.5
2016-11-05T17:17:57.765Z,20.49
2016-11-05T17:19:08.153Z,20.44
2016-11-05T17:19:58.652Z,20.39
2016-11-05T17:21:09.086Z,20.42
2016-11-05T17:22:19.443Z,20.42
2016-11-05T17:23:29.843Z,20.42
2016-11-05T17:24:40.239Z,20.39
2016-11-05T17:25:50.653Z,20.39
2016-11-05T17:27:00.998Z,20.39
2016-11-05T17:28:11.366Z,20.39
2016-11-05T17:29:21.701Z,20.4
2016-11-05T17:30:32.060Z,20.4
2016-11-05T17:31:42.417Z,20.4
2016-11-05T17:32:52.752Z,20.39
2016-11-05T17:34:03.104Z,20.4
2016-11-05T17:35:13.469Z,20.42
2016-11-05T18:15:44.349Z,20.44
2016-11-05T18:16:54.713Z,20.44
2016-11-05T18:18:05.112Z,20.5
2016-11-05T18:19:15.487Z,20.46
2016-11-05T19:16:00.781Z,20.71
2016-11-05T19:16:51.277Z,20.71
2016-11-05T19:18:01.690Z,20.71
2016-11-05T19:19:12.088Z,20.7
2016-11-05T19:20:22.492Z,20.77
2016-11-05T19:21:32.885Z,20.67
2016-11-05T19:22:43.292Z,20.7
2016-11-05T19:23:53.700Z,20.7
2016-11-05T19:25:04.101Z,20.68
2016-11-05T19:26:14.506Z,20.68
2016-11-05T19:27:24.848Z,20.73
2016-11-05T20:16:02.819Z,20.83
2016-11-05T20:17:13.218Z,20.88
2016-11-05T20:18:23.610Z,20.89
2016-11-05T20:19:34.005Z,20.9
2016-11-05T20:20:44.391Z,20.89
2016-11-05T20:21:54.807Z,20.83
2016-11-05T20:23:05.217Z,20.88
2016-11-05T20:24:15.619Z,20.86
2016-11-05T20:25:26.017Z,20.88
2016-11-05T20:26:36.423Z,20.83
2016-11-05T20:27:46.817Z,20.88
2016-11-05T20:28:57.210Z,20.88
2016-11-05T20:30:07.613Z,20.89
2016-11-05T20:31:18.022Z,20.93
2016-11-05T20:32:28.421Z,20.86
2016-11-05T21:15:49.277Z,20.98
2016-11-05T21:16:59.627Z,20.89
2016-11-05T21:18:09.976Z,20.88
2016-11-05T21:19:20.325Z,20.88
2016-11-05T21:20:30.719Z,20.98
2016-11-05T21:21:41.117Z,20.14
2016-11-05T21:22:51.518Z,18.97
2016-11-05T21:24:01.917Z,19.32
2016-11-05T21:25:12.313Z,19.67
2016-11-05T21:26:22.712Z,20
2016-11-05T21:27:33.102Z,20.18
2016-11-05T21:28:43.504Z,20.33
2016-11-05T21:29:53.912Z,20.49
2016-11-05T21:31:04.308Z,20.55
2016-11-05T21:32:14.696Z,20.63
2016-11-05T21:33:25.103Z,20.66
2016-11-05T22:15:57.575Z,19.64
2016-11-05T22:17:07.919Z,19.84
2016-11-05T22:18:18.266Z,20.03
2016-11-05T22:19:28.612Z,20.19
2016-11-05T22:20:38.965Z,20.15
2016-11-05T22:21:49.360Z,20.26
2016-11-05T22:22:59.762Z,20.29
2016-11-05T23:16:07.218Z,20.6
2016-11-05T23:17:17.567Z,20.73
2016-11-05T23:18:27.910Z,20.64
2016-11-05T23:19:38.266Z,20.64
2016-11-05T23:20:48.609Z,20.71
2016-11-05T23:21:59.008Z,20.68
2016-11-05T23:23:09.402Z,20.7
2016-11-05T23:24:19.805Z,20.64
2016-11-05T23:25:30.206Z,20.68
2016-11-05T23:26:40.606Z,20.68
2016-11-05T23:27:51.004Z,20.29
2016-11-05T23:29:01.403Z,20.15
2016-11-05T23:30:11.790Z,20.3
2016-11-05T23:31:02.291Z,20.27
2016-11-05T23:32:12.691Z,20.42
2016-11-05T23:33:23.089Z,20.48
2016-11-05T23:34:33.496Z,20.5
2016-11-05T23:35:43.897Z,20.64
2016-11-05T23:36:54.300Z,20.63
2016-11-05T23:38:04.705Z,20.63
2016-11-05T23:39:15.114Z,20.56
2016-11-05T23:40:25.518Z,20.71
2016-11-05T23:41:35.926Z,20.56
2016-11-05T23:42:46.326Z,20.58
